createdAt,value
2023-04-08T00:02:17.676Z,10.37
2023-04-08T00:04:44.362Z,10.03
2023-04-08T00:07:11.286Z,10.97
2023-04-08T00:09:38.710Z,11.03
2023-04-08T00:12:05.959Z,11.10
2023-04-08T00:14:32.593Z,10.50
2023-04-08T00:17:01.035Z,11.33
2023-04-08T00:19:27.629Z,10.67
2023-04-08T00:21:54.210Z,9.60
2023-04-08T00:24:20.871Z,11.30
2023-04-08T00:26:47.485Z,9.53
2023-04-08T00:29:14.264Z,10.60
2023-04-08T00:31:40.855Z,9.77
2023-04-08T00:34:07.467Z,10.87
2023-04-08T00:36:34.731Z,9.80
2023-04-08T00:39:01.429Z,11.03
2023-04-08T00:41:28.043Z,11.23
2023-04-08T00:43:54.635Z,10.50
2023-04-08T00:46:21.879Z,9.60
2023-04-08T00:48:48.785Z,10.50
2023-04-08T00:51:17.054Z,9.40
2023-04-08T00:53:43.691Z,10.20
2023-04-08T00:56:11.222Z,10.07
2023-04-08T00:58:38.671Z,9.93
2023-04-08T01:01:17.471Z,9.27
2023-04-08T01:03:46.755Z,9.93
2023-04-08T01:06:22.524Z,9.63
2023-04-08T01:08:51.639Z,9.53
2023-04-08T01:11:19.007Z,10.20
2023-04-08T01:13:47.738Z,9.90
2023-04-08T01:16:16.910Z,9.17
2023-04-08T01:18:46.450Z,9.97
2023-04-08T01:21:15.093Z,10.10
2023-04-08T01:23:53.336Z,9.13
2023-04-08T01:26:24.462Z,10.07
2023-04-08T01:28:53.773Z,9.43
2023-04-08T01:31:22.590Z,9.30
2023-04-08T01:33:50.307Z,8.13
2023-04-08T01:36:20.958Z,8.47
2023-04-08T01:38:48.940Z,10.60
2023-04-08T01:41:17.695Z,12.57
2023-04-08T01:43:44.957Z,12.87
2023-04-08T01:46:13.736Z,12.13
2023-04-08T01:48:40.913Z,10.70
2023-04-08T01:51:09.223Z,10.10
2023-04-08T01:53:35.949Z,9.83
2023-04-08T01:56:07.340Z,9.77
2023-04-08T01:58:39.913Z,9.93
2023-04-08T02:01:12.325Z,10.27
2023-04-08T02:03:42.955Z,9.03
2023-04-08T02:06:09.812Z,9.20
2023-04-08T02:08:36.774Z,8.87
2023-04-08T02:11:04.140Z,8.90
2023-04-08T02:13:31.773Z,8.90
2023-04-08T02:16:06.627Z,7.57
2023-04-08T02:18:37.600Z,8.60
2023-04-08T02:21:16.251Z,9.00
2023-04-08T02:23:49.448Z,8.93
2023-04-08T02:26:18.177Z,9.20
2023-04-08T02:28:46.157Z,8.80
2023-04-08T02:31:14.313Z,10.20
2023-04-08T02:33:42.880Z,9.47
2023-04-08T02:36:11.302Z,9.00
2023-04-08T02:38:37.934Z,8.40
2023-04-08T02:41:04.685Z,7.87
2023-04-08T02:43:34.569Z,7.67
2023-04-08T02:46:04.767Z,7.97
2023-04-08T02:48:32.368Z,8.13
2023-04-08T02:50:58.979Z,7.43
2023-04-08T02:53:25.801Z,7.90
2023-04-08T02:55:52.595Z,8.10
2023-04-08T02:58:19.265Z,8.60
2023-04-08T03:00:46.237Z,9.90
2023-04-08T03:03:12.937Z,9.30
2023-04-08T03:05:39.651Z,10.03
2023-04-08T03:08:06.956Z,10.53
2023-04-08T03:10:33.641Z,11.57
2023-04-08T03:13:00.461Z,10.67
2023-04-08T03:15:27.510Z,10.97
2023-04-08T03:17:54.397Z,11.37
2023-04-08T03:20:21.021Z,12.47
2023-04-08T03:22:47.735Z,11.03
2023-04-08T03:25:14.329Z,11.27
2023-04-08T03:27:40.986Z,11.83
2023-04-08T03:30:08.273Z,12.27
2023-04-08T03:32:35.195Z,12.47
2023-04-08T03:35:01.876Z,11.93
2023-04-08T03:37:28.435Z,13.43
2023-04-08T03:39:55.463Z,12.77
2023-04-08T03:42:22.144Z,13.17
2023-04-08T03:44:48.728Z,14.80
2023-04-08T03:47:15.449Z,14.57
2023-04-08T03:49:41.990Z,14.27
2023-04-08T03:52:08.595Z,14.53
2023-04-08T03:54:35.240Z,17.33
2023-04-08T03:57:01.869Z,16.87
2023-04-08T03:59:28.408Z,17.60
2023-04-08T04:01:55.026Z,14.93
2023-04-08T04:04:21.960Z,15.60
2023-04-08T04:06:48.703Z,16.87
2023-04-08T04:09:16.893Z,15.37
2023-04-08T04:11:43.624Z,15.53
2023-04-08T04:14:10.307Z,13.90
2023-04-08T04:16:39.689Z,15.13
2023-04-08T04:19:06.268Z,15.33
2023-04-08T04:21:32.835Z,14.87
2023-04-08T04:23:59.397Z,15.00
2023-04-08T04:26:26.246Z,16.80
2023-04-08T04:28:52.990Z,15.07
2023-04-08T04:31:26.653Z,14.43
2023-04-08T04:33:53.495Z,11.93
2023-04-08T04:36:20.067Z,12.40
2023-04-08T04:38:48.861Z,12.83
2023-04-08T04:41:17.063Z,13.43
2023-04-08T04:43:43.716Z,12.37
2023-04-08T04:46:10.966Z,14.43
2023-04-08T04:48:37.623Z,13.97
2023-04-08T04:51:04.423Z,13.53
2023-04-08T04:53:31.905Z,13.87
2023-04-08T04:55:58.882Z,13.23
2023-04-08T04:58:25.637Z,13.07
2023-04-08T05:00:52.250Z,13.00
2023-04-08T05:03:19.018Z,14.33
2023-04-08T05:05:46.155Z,13.30
2023-04-08T05:08:12.750Z,13.67
2023-04-08T05:10:41.510Z,15.27
2023-04-08T05:13:08.210Z,13.43
2023-04-08T05:15:35.834Z,14.17
2023-04-08T05:18:02.726Z,14.97
2023-04-08T05:20:29.892Z,14.77
2023-04-08T05:22:56.502Z,17.43
2023-04-08T05:25:24.310Z,14.63
2023-04-08T05:27:50.892Z,12.90
2023-04-08T05:30:17.530Z,12.60
2023-04-08T05:32:44.259Z,11.37
2023-04-08T05:35:10.833Z,12.43
2023-04-08T05:37:37.385Z,11.47
2023-04-08T05:40:04.298Z,11.40
2023-04-08T05:42:32.259Z,12.23
2023-04-08T05:44:59.056Z,12.77
2023-04-08T05:47:25.677Z,14.10
2023-04-08T05:49:52.551Z,11.90
2023-04-08T05:52:19.218Z,13.80
2023-04-08T05:54:45.971Z,12.73
2023-04-08T05:57:12.558Z,12.90
2023-04-08T05:59:39.116Z,11.50
2023-04-08T06:02:06.092Z,11.90
2023-04-08T06:04:32.756Z,13.13
2023-04-08T06:07:01.088Z,13.67
2023-04-08T06:09:27.608Z,13.67
2023-04-08T06:11:54.320Z,15.13
2023-04-08T06:14:20.999Z,14.37
2023-04-08T06:16:48.458Z,14.57
2023-04-08T06:19:15.011Z,14.50
2023-04-08T06:21:41.803Z,14.70
2023-04-08T06:24:08.375Z,15.33
2023-04-08T06:26:34.959Z,15.13
2023-04-08T06:29:02.158Z,15.83
2023-04-08T06:31:28.810Z,14.47
2023-04-08T06:33:56.144Z,14.87
2023-04-08T06:36:22.755Z,13.87
2023-04-08T06:38:49.625Z,15.13
2023-04-08T06:41:16.538Z,15.47
2023-04-08T06:43:43.211Z,13.00
2023-04-08T06:46:09.835Z,13.70
2023-04-08T06:48:37.913Z,15.03
2023-04-08T06:51:04.730Z,12.87
2023-04-08T06:53:33.062Z,14.50
2023-04-08T06:56:00.468Z,13.93
2023-04-08T06:58:27.437Z,17.70
2023-04-08T07:00:55.953Z,18.37
2023-04-08T07:03:23.291Z,13.40
2023-04-08T07:05:49.945Z,12.47
2023-04-08T07:08:16.485Z,13.90
2023-04-08T07:10:43.374Z,12.77
2023-04-08T07:13:09.998Z,12.13
2023-04-08T07:15:37.073Z,12.70
2023-04-08T07:18:04.976Z,12.10
2023-04-08T07:20:32.405Z,11.10
2023-04-08T07:22:59.048Z,11.73
2023-04-08T07:25:25.676Z,11.63
2023-04-08T07:27:53.034Z,11.80
2023-04-08T07:30:19.915Z,13.70
2023-04-08T07:32:46.680Z,13.40
2023-04-08T07:35:13.387Z,16.17
2023-04-08T07:37:40.091Z,12.53
2023-04-08T07:40:07.480Z,13.93
2023-04-08T07:42:34.073Z,13.17
2023-04-08T07:45:00.773Z,13.90
2023-04-08T07:47:27.496Z,12.53
2023-04-08T07:49:54.735Z,12.07
2023-04-08T07:52:21.557Z,11.77
2023-04-08T07:54:48.147Z,12.60
2023-04-08T07:57:15.040Z,11.70
2023-04-08T07:59:41.929Z,12.77
2023-04-08T08:02:08.622Z,12.80
2023-04-08T08:04:35.432Z,12.13
2023-04-08T08:07:02.262Z,11.40
2023-04-08T08:09:30.585Z,11.87
2023-04-08T08:11:58.812Z,11.23
2023-04-08T08:14:26.970Z,11.50
2023-04-08T08:16:54.812Z,11.50
2023-04-08T08:19:21.654Z,10.43
2023-04-08T08:21:48.884Z,10.60
2023-04-08T08:24:16.707Z,11.07
2023-04-08T08:26:45.278Z,11.13
2023-04-08T08:29:11.829Z,12.47
2023-04-08T08:31:38.491Z,18.60
2023-04-08T08:34:05.225Z,15.83
2023-04-08T08:36:33.455Z,10.43
2023-04-08T08:39:01.477Z,10.33
2023-04-08T08:41:32.814Z,10.67
2023-04-08T08:44:00.122Z,10.50
2023-04-08T08:46:26.728Z,10.87
2023-04-08T08:48:53.483Z,11.77
2023-04-08T08:51:20.583Z,11.40
2023-04-08T08:53:47.234Z,10.97
2023-04-08T08:56:18.442Z,10.80
2023-04-08T08:58:45.928Z,11.07
2023-04-08T09:01:32.769Z,11.57
2023-04-08T09:04:09.020Z,11.33
2023-04-08T09:06:36.998Z,11.57
2023-04-08T09:09:06.289Z,25.03
2023-04-08T09:11:33.522Z,12.13
2023-04-08T09:14:00.137Z,11.67
2023-04-08T09:16:27.474Z,10.43
2023-04-08T09:18:54.329Z,10.27
2023-04-08T09:21:24.884Z,10.63
2023-04-08T09:23:52.907Z,9.63
2023-04-08T09:26:22.378Z,11.27
2023-04-08T09:29:25.079Z,9.60
2023-04-08T09:31:57.584Z,11.23
2023-04-08T09:34:25.341Z,11.20
2023-04-08T09:36:53.127Z,9.67
2023-04-08T09:39:19.997Z,9.53
2023-04-08T09:41:50.039Z,10.20
2023-04-08T09:44:18.637Z,10.77
2023-04-08T09:46:45.115Z,10.23
2023-04-08T09:49:30.048Z,10.73
2023-04-08T09:52:11.231Z,11.40
2023-04-08T09:54:56.000Z,10.83
2023-04-08T09:57:32.247Z,10.63
2023-04-08T10:00:06.077Z,12.00
2023-04-08T10:02:43.806Z,11.40
2023-04-08T10:05:13.618Z,11.70
2023-04-08T10:07:41.951Z,11.00
2023-04-08T10:10:11.957Z,11.10
2023-04-08T10:12:39.110Z,12.60
2023-04-08T10:15:27.984Z,11.20
2023-04-08T10:18:07.940Z,11.43
2023-04-08T10:20:34.768Z,11.77
2023-04-08T10:23:01.907Z,11.13
2023-04-08T10:25:50.893Z,12.97
2023-04-08T10:28:20.314Z,11.57
2023-04-08T10:30:47.598Z,11.10
2023-04-08T10:33:23.429Z,11.53
2023-04-08T10:35:59.949Z,11.93
2023-04-08T10:38:27.506Z,11.40
2023-04-08T10:40:54.820Z,10.90
2023-04-08T10:43:21.424Z,10.60
2023-04-08T10:45:51.601Z,10.93
2023-04-08T10:48:25.082Z,10.17
2023-04-08T10:51:04.009Z,12.13
2023-04-08T10:53:39.429Z,12.97
2023-04-08T10:56:13.502Z,12.33
2023-04-08T10:58:54.423Z,11.17
2023-04-08T11:01:21.574Z,12.60
2023-04-08T11:03:49.018Z,10.17
2023-04-08T11:06:17.610Z,13.63
2023-04-08T11:08:47.520Z,13.53
2023-04-08T11:11:14.999Z,15.20
2023-04-08T11:13:52.984Z,14.40
2023-04-08T11:16:24.539Z,14.37
2023-04-08T11:18:54.307Z,15.63
2023-04-08T11:21:23.198Z,17.47
2023-04-08T11:23:52.209Z,16.30
2023-04-08T11:26:20.302Z,15.43
2023-04-08T11:28:49.363Z,14.93
2023-04-08T11:31:16.597Z,15.37
2023-04-08T11:33:48.851Z,15.40
2023-04-08T11:36:18.131Z,14.30
2023-04-08T11:38:44.893Z,14.27
2023-04-08T11:41:14.299Z,12.63
2023-04-08T11:43:51.711Z,13.00
2023-04-08T11:46:20.738Z,14.00
2023-04-08T11:49:00.567Z,12.80
2023-04-08T11:51:28.228Z,13.43
2023-04-08T11:53:56.298Z,12.97
2023-04-08T11:56:24.277Z,11.83
2023-04-08T11:58:51.988Z,12.60
2023-04-08T12:01:19.421Z,12.97
2023-04-08T12:04:02.393Z,12.80
2023-04-08T12:06:29.580Z,13.10
2023-04-08T12:08:56.926Z,14.60
2023-04-08T12:11:24.212Z,12.70
2023-04-08T12:13:51.603Z,14.80
2023-04-08T12:16:19.214Z,14.23
2023-04-08T12:18:46.912Z,13.70
2023-04-08T12:21:13.538Z,11.47
2023-04-08T12:23:40.190Z,12.97
2023-04-08T12:26:07.612Z,12.23
2023-04-08T12:28:35.274Z,12.13
2023-04-08T12:31:01.955Z,12.27
2023-04-08T12:33:28.789Z,12.17
2023-04-08T12:35:55.466Z,12.50
2023-04-08T12:38:22.130Z,12.00
2023-04-08T12:40:50.203Z,14.70
2023-04-08T12:43:16.959Z,13.63
2023-04-08T12:45:43.734Z,16.17
2023-04-08T12:48:10.713Z,17.07
2023-04-08T12:50:37.444Z,15.97
2023-04-08T12:53:04.184Z,15.67
2023-04-08T12:55:30.814Z,16.73
2023-04-08T12:57:57.539Z,15.53
2023-04-08T13:00:24.285Z,13.43
2023-04-08T13:02:50.911Z,13.70
2023-04-08T13:05:18.333Z,13.03
2023-04-08T13:07:48.265Z,11.43
2023-04-08T13:10:14.845Z,12.03
2023-04-08T13:12:41.542Z,12.50
2023-04-08T13:15:08.937Z,13.00
2023-04-08T13:17:35.900Z,12.30
2023-04-08T13:20:03.062Z,12.33
2023-04-08T13:22:29.676Z,13.13
2023-04-08T13:24:57.062Z,14.30
2023-04-08T13:27:23.583Z,13.70
2023-04-08T13:29:50.185Z,12.43
2023-04-08T13:32:16.997Z,15.60
2023-04-08T13:34:43.941Z,13.53
2023-04-08T13:37:10.572Z,13.20
2023-04-08T13:39:37.167Z,12.57
2023-04-08T13:42:04.334Z,15.47
2023-04-08T13:44:31.110Z,16.30
2023-04-08T13:46:57.724Z,15.07
2023-04-08T13:49:24.451Z,15.17
2023-04-08T13:51:51.065Z,13.47
2023-04-08T13:54:17.681Z,13.03
2023-04-08T13:56:44.308Z,14.83
2023-04-08T13:59:10.901Z,15.03
2023-04-08T14:01:37.707Z,14.07
2023-04-08T14:04:04.439Z,14.17
2023-04-08T14:06:31.548Z,15.00
2023-04-08T14:08:58.428Z,16.60
2023-04-08T14:11:25.122Z,15.27
2023-04-08T14:13:51.860Z,16.10
2023-04-08T14:16:18.753Z,15.70
2023-04-08T14:18:45.813Z,13.83
2023-04-08T14:21:14.322Z,14.83
2023-04-08T14:23:40.922Z,14.80
2023-04-08T14:26:07.848Z,17.53
2023-04-08T14:28:34.376Z,16.40
2023-04-08T14:31:01.206Z,15.40
2023-04-08T14:33:27.842Z,15.97
2023-04-08T14:35:54.484Z,15.53
2023-04-08T14:38:21.584Z,15.53
2023-04-08T14:40:48.210Z,17.93
2023-04-08T14:43:14.841Z,16.43
2023-04-08T14:45:41.483Z,17.43
2023-04-08T14:48:08.329Z,14.97
2023-04-08T14:50:35.018Z,15.57
2023-04-08T14:53:02.015Z,15.37
2023-04-08T14:55:30.242Z,15.67
2023-04-08T14:57:58.068Z,17.23
2023-04-08T15:00:25.870Z,16.67
2023-04-08T15:02:52.602Z,17.43
2023-04-08T15:05:19.394Z,20.30
2023-04-08T15:07:48.590Z,18.40
2023-04-08T15:10:15.324Z,18.90
2023-04-08T15:12:42.173Z,30.97
2023-04-08T15:15:09.705Z,19.67
2023-04-08T15:17:37.008Z,17.57
2023-04-08T15:20:04.033Z,18.37
2023-04-08T15:22:30.636Z,19.10
2023-04-08T15:24:57.194Z,19.97
2023-04-08T15:27:23.830Z,21.03
2023-04-08T15:29:50.376Z,21.37
2023-04-08T15:32:16.963Z,20.70
2023-04-08T15:34:43.596Z,20.13
2023-04-08T15:37:10.204Z,21.90
2023-04-08T15:39:37.153Z,21.33
2023-04-08T15:42:04.150Z,22.07
2023-04-08T15:44:32.555Z,21.97
2023-04-08T15:46:59.232Z,23.37
2023-04-08T15:49:26.756Z,22.17
2023-04-08T15:51:53.800Z,22.90
2023-04-08T15:54:20.457Z,21.23
2023-04-08T15:56:48.065Z,21.70
2023-04-08T15:59:14.708Z,23.87
2023-04-08T16:01:42.210Z,25.07
2023-04-08T16:04:08.969Z,27.63
2023-04-08T16:06:35.614Z,27.10
2023-04-08T16:09:02.615Z,27.53
2023-04-08T16:11:29.902Z,32.10
2023-04-08T16:13:57.464Z,30.77
2023-04-08T16:16:24.089Z,33.30
2023-04-08T16:18:51.058Z,32.10
2023-04-08T16:21:18.707Z,31.40
2023-04-08T16:23:45.419Z,24.50
2023-04-08T16:26:12.982Z,22.57
2023-04-08T16:28:40.178Z,23.53
2023-04-08T16:31:07.116Z,23.30
2023-04-08T16:33:33.856Z,26.27
2023-04-08T16:36:00.984Z,27.53
2023-04-08T16:38:27.669Z,28.67
2023-04-08T16:40:58.503Z,30.47
2023-04-08T16:43:25.884Z,27.83
2023-04-08T16:45:53.405Z,29.17
2023-04-08T16:48:20.162Z,29.97
2023-04-08T16:50:47.515Z,26.70
2023-04-08T16:53:14.186Z,26.13
2023-04-08T16:55:40.793Z,26.57
2023-04-08T16:58:07.718Z,26.93
2023-04-08T17:00:34.652Z,25.87
2023-04-08T17:03:01.814Z,24.87
2023-04-08T17:05:28.538Z,23.43
2023-04-08T17:07:58.830Z,24.47
2023-04-08T17:10:25.870Z,24.77
2023-04-08T17:12:52.494Z,25.17
2023-04-08T17:15:19.173Z,32.73
2023-04-08T17:17:46.719Z,30.73
2023-04-08T17:20:13.681Z,37.47
2023-04-08T17:22:40.388Z,35.40
2023-04-08T17:25:07.492Z,34.60
2023-04-08T17:27:34.193Z,34.47
2023-04-08T17:30:00.935Z,33.93
2023-04-08T17:32:27.786Z,33.80
2023-04-08T17:34:54.551Z,37.50
2023-04-08T17:37:21.346Z,41.00
2023-04-08T17:39:47.962Z,49.03
2023-04-08T17:42:14.537Z,49.43
2023-04-08T17:44:42.699Z,41.17
2023-04-08T17:47:09.378Z,35.83
2023-04-08T17:49:36.064Z,32.83
2023-04-08T17:52:04.215Z,31.87
2023-04-08T17:54:34.627Z,31.23
2023-04-08T17:57:03.319Z,32.27
2023-04-08T17:59:29.981Z,31.70
2023-04-08T18:01:56.695Z,31.53
2023-04-08T18:04:24.105Z,31.70
2023-04-08T18:06:50.813Z,33.10
2023-04-08T18:09:17.517Z,35.67
2023-04-08T18:11:44.107Z,34.30
2023-04-08T18:14:10.919Z,34.30
2023-04-08T18:16:37.650Z,34.83
2023-04-08T18:19:04.288Z,38.40
2023-04-08T18:21:31.633Z,34.87
2023-04-08T18:23:58.296Z,35.93
2023-04-08T18:26:24.919Z,34.60
2023-04-08T18:28:51.535Z,36.80
2023-04-08T18:31:18.246Z,37.80
2023-04-08T18:33:44.904Z,40.10
2023-04-08T18:36:12.856Z,39.37
2023-04-08T18:38:41.136Z,42.40
2023-04-08T18:41:08.573Z,40.33
2023-04-08T18:43:35.683Z,39.70
2023-04-08T18:46:02.383Z,42.37
2023-04-08T18:48:29.636Z,41.03
2023-04-08T18:50:56.849Z,42.00
2023-04-08T18:53:23.524Z,44.80
2023-04-08T18:55:51.341Z,42.53
2023-04-08T18:58:18.597Z,39.87
2023-04-08T19:00:45.275Z,39.30
2023-04-08T19:03:12.117Z,36.40
2023-04-08T19:05:38.966Z,37.87
2023-04-08T19:08:06.318Z,39.97
2023-04-08T19:10:34.367Z,35.50
2023-04-08T19:13:02.466Z,34.87
2023-04-08T19:15:29.565Z,35.70
2023-04-08T19:17:56.708Z,53.00
2023-04-08T19:20:23.707Z,80.70
2023-04-08T19:22:50.503Z,55.30
2023-04-08T19:25:17.577Z,49.80
2023-04-08T19:27:46.085Z,47.10
2023-04-08T19:30:13.557Z,48.00
2023-04-08T19:32:40.810Z,45.67
2023-04-08T19:35:08.080Z,41.57
2023-04-08T19:37:34.882Z,40.47
2023-04-08T19:40:01.713Z,43.80
2023-04-08T19:42:29.324Z,44.30
2023-04-08T19:44:55.976Z,46.80
2023-04-08T19:47:22.873Z,43.80
2023-04-08T19:49:49.862Z,39.90
2023-04-08T19:52:16.622Z,40.27
2023-04-08T19:54:43.706Z,40.90
2023-04-08T19:57:11.775Z,39.00
2023-04-08T19:59:38.370Z,38.03
2023-04-08T20:02:05.273Z,39.93
2023-04-08T20:04:33.008Z,40.70
2023-04-08T20:07:03.981Z,38.87
2023-04-08T20:09:32.853Z,46.03
2023-04-08T20:12:04.740Z,45.17
2023-04-08T20:14:37.989Z,48.87
2023-04-08T20:17:04.710Z,43.00
2023-04-08T20:19:31.421Z,43.53
2023-04-08T20:21:58.385Z,45.47
2023-04-08T20:24:25.003Z,43.40
2023-04-08T20:26:52.593Z,40.30
2023-04-08T20:29:19.344Z,43.77
2023-04-08T20:31:46.083Z,45.43
2023-04-08T20:34:13.015Z,43.50
2023-04-08T20:36:40.092Z,47.80
2023-04-08T20:39:10.938Z,45.43
2023-04-08T20:41:37.822Z,43.17
2023-04-08T20:44:07.125Z,45.27
2023-04-08T20:46:35.329Z,40.07
2023-04-08T20:49:03.912Z,45.87
2023-04-08T20:51:32.691Z,42.07
2023-04-08T20:54:00.069Z,43.77
2023-04-08T20:56:26.715Z,42.77
2023-04-08T20:58:53.781Z,42.80
2023-04-08T21:01:20.716Z,42.53
2023-04-08T21:03:48.187Z,43.70
2023-04-08T21:06:21.840Z,40.73
2023-04-08T21:08:50.180Z,44.30
2023-04-08T21:11:17.595Z,40.23
2023-04-08T21:13:46.581Z,43.37
2023-04-08T21:16:15.330Z,42.83
2023-04-08T21:18:42.525Z,40.50
2023-04-08T21:21:10.736Z,40.03
2023-04-08T21:23:37.511Z,39.07
2023-04-08T21:26:04.209Z,40.67
2023-04-08T21:28:31.523Z,39.13
2023-04-08T21:31:08.058Z,38.73
2023-04-08T21:33:34.994Z,39.97
2023-04-08T21:36:01.760Z,36.83
2023-04-08T21:38:28.375Z,38.13
2023-04-08T21:40:54.950Z,36.97
2023-04-08T21:43:22.583Z,36.87
2023-04-08T21:45:49.218Z,39.30
2023-04-08T21:48:15.866Z,36.23
2023-04-08T21:50:42.800Z,39.57
2023-04-08T21:53:09.455Z,37.47
2023-04-08T21:55:36.069Z,38.30
2023-04-08T21:58:03.127Z,39.17
2023-04-08T22:00:30.321Z,38.40
2023-04-08T22:02:57.217Z,39.67
2023-04-08T22:05:23.890Z,41.00
2023-04-08T22:07:50.529Z,38.70
2023-04-08T22:10:17.184Z,39.87
2023-04-08T22:12:43.911Z,40.40
2023-04-08T22:15:11.265Z,39.77
2023-04-08T22:17:37.876Z,38.53
2023-04-08T22:20:04.833Z,40.27
2023-04-08T22:22:31.501Z,40.50
2023-04-08T22:24:58.136Z,37.40
2023-04-08T22:27:25.546Z,38.40
2023-04-08T22:29:52.163Z,38.23
2023-04-08T22:32:18.741Z,39.20
2023-04-08T22:34:45.409Z,39.13
2023-04-08T22:37:12.148Z,38.67
2023-04-08T22:39:38.804Z,40.20
2023-04-08T22:42:05.612Z,42.50
2023-04-08T22:44:32.211Z,41.87
2023-04-08T22:47:01.743Z,45.33
2023-04-08T22:49:28.369Z,45.60
2023-04-08T22:51:55.167Z,44.90
2023-04-08T22:54:21.821Z,44.67
2023-04-08T22:56:48.410Z,42.30
2023-04-08T22:59:14.999Z,40.70
2023-04-08T23:01:41.866Z,43.80
2023-04-08T23:04:08.600Z,40.03
2023-04-08T23:06:35.223Z,43.27
2023-04-08T23:09:01.850Z,39.13
2023-04-08T23:11:28.428Z,41.97
2023-04-08T23:13:54.992Z,43.03
2023-04-08T23:16:21.826Z,42.83
2023-04-08T23:18:48.553Z,44.30
2023-04-08T23:21:15.217Z,42.47
2023-04-08T23:23:41.860Z,43.30
2023-04-08T23:26:16.980Z,40.43
2023-04-08T23:28:43.609Z,38.17
2023-04-08T23:31:10.487Z,39.50
2023-04-08T23:33:37.097Z,37.57
2023-04-08T23:36:11.458Z,36.67
2023-04-08T23:38:38.238Z,36.70
2023-04-08T23:41:05.284Z,35.60
2023-04-08T23:43:32.097Z,37.07
2023-04-08T23:45:58.770Z,34.97
2023-04-08T23:48:25.708Z,36.73
2023-04-08T23:50:53.135Z,36.77
2023-04-08T23:53:20.426Z,38.83
2023-04-08T23:55:47.109Z,36.00
2023-04-08T23:58:13.924Z,36.10
